PWSweather.com
Personal Weather Stations
Station Observations
DW7240
Park & Bond, Oshawa, ON L1J 4K8

Park & BondOshawa, ON L1J 4K8

Lat: 43.89689, Lon: -78.87396

Elevation: 358

Station Type: DAVIS VANTAGE PRO2 inc FARS

http://dw7240.com

Latest ConditionsUpdated 11:15:00 PM EST Thursday, Dec 13, 2018
Currently Today's Max Today's Min Today's Average
Temperature 34.4°F1.3°C 36.7°F2.6°C 27.5°F-2.5°C 32.1°F0.1°C
Dew Point 30.9°F-0.6°C 31.6°F-0.2°C 23.6°F-4.7°C 27.9°F-2.3°C
Winds Calm Calm 8.0 mph -12.9 kmh - - 2.0 mph 3.2 kmh
Wind Gusts 4.0 mph6.4 kmh 16.0 mph25.7 kmh - -
Humidity 87% 88% 80% 85%
Pressure 30.29 in1025.7 mb 30.30 in1026.1 mb 30.09 in1019.0 mb -
Hour Temp Dew Point Humidity Winds Wind Gusts Pressure Precip Precip Rate Daily Precip Total
11:15 PM 34.4°F1.3°C 30.9°F-0.6°C 87% Calm Calm 4.0 mph6.4 kmh 30.29 in1025.7 mb 0.00 in0.0 mm 0.00 in0.0 mm 0.00 in0.0 mm
11:00 PM 34.5°F1.4°C 30.7°F-0.7°C 86% Calm Calm -- 30.29 in1025.7 mb 0.00 in0.0 mm 0.00 in0.0 mm 0.00 in0.0 mm
10:45 PM 34.6°F1.4°C 30.8°F-0.7°C 86% Calm Calm 3.0 mph4.8 kmh 30.29 in1025.7 mb 0.00 in0.0 mm 0.00 in0.0 mm 0.00 in0.0 mm
10:30 PM 34.6°F1.4°C 30.8°F-0.7°C 86% 1.0 mph ENE1.6 kmh ENE 4.0 mph6.4 kmh 30.29 in1025.7 mb 0.00 in0.0 mm 0.00 in0.0 mm 0.00 in0.0 mm
10:15 PM 34.5°F1.4°C 30.7°F-0.7°C 86% 1.0 mph ENE1.6 kmh ENE 7.0 mph11.3 kmh 30.28 in1025.4 mb 0.00 in0.0 mm 0.00 in0.0 mm 0.00 in0.0 mm
10:00 PM 34.4°F1.3°C 30.6°F-0.8°C 86% 1.0 mph ENE1.6 kmh ENE 6.0 mph9.7 kmh 30.28 in1025.4 mb 0.00 in0.0 mm 0.00 in0.0 mm 0.00 in0.0 mm
09:45 PM 34.2°F1.2°C 30.2°F-1.0°C 85% 1.0 mph ENE1.6 kmh ENE 7.0 mph11.3 kmh 30.28 in1025.4 mb 0.00 in0.0 mm 0.00 in0.0 mm 0.00 in0.0 mm
09:30 PM 34.3°F1.3°C 30.3°F-0.9°C 85% Calm Calm 3.0 mph4.8 kmh 30.29 in1025.7 mb 0.00 in0.0 mm 0.00 in0.0 mm 0.00 in0.0 mm
09:15 PM 34.2°F1.2°C 30.2°F-1.0°C 85% 1.0 mph E1.6 kmh E 3.0 mph4.8 kmh 30.28 in1025.4 mb 0.00 in0.0 mm 0.00 in0.0 mm 0.00 in0.0 mm
09:00 PM 34.4°F1.3°C 30.1°F-1.1°C 84% 1.0 mph E1.6 kmh E 6.0 mph9.7 kmh 30.29 in1025.7 mb 0.00 in0.0 mm 0.00 in0.0 mm 0.00 in0.0 mm
08:45 PM 34.4°F1.3°C 30.1°F-1.1°C 84% 1.0 mph E1.6 kmh E 6.0 mph9.7 kmh 30.29 in1025.7 mb 0.00 in0.0 mm 0.00 in0.0 mm 0.00 in0.0 mm
08:30 PM 34.3°F1.3°C 30.0°F-1.1°C 84% 1.0 mph E1.6 kmh E 7.0 mph11.3 kmh 30.30 in1026.1 mb 0.00 in0.0 mm 0.00 in0.0 mm 0.00 in0.0 mm
08:15 PM 34.0°F1.1°C 29.4°F-1.4°C 83% 1.0 mph E1.6 kmh E 5.0 mph8.0 kmh 30.30 in1026.1 mb 0.00 in0.0 mm 0.00 in0.0 mm 0.00 in0.0 mm
08:00 PM 33.8°F1.0°C 29.2°F-1.6°C 83% 2.0 mph E3.2 kmh E 8.0 mph12.9 kmh 30.30 in1026.1 mb 0.00 in0.0 mm 0.00 in0.0 mm 0.00 in0.0 mm
07:45 PM 33.6°F0.9°C 29.0°F-1.7°C 83% 2.0 mph E3.2 kmh E 7.0 mph11.3 kmh 30.30 in1026.1 mb 0.00 in0.0 mm 0.00 in0.0 mm 0.00 in0.0 mm
07:30 PM 33.5°F0.8°C 28.9°F-1.7°C 83% 2.0 mph E3.2 kmh E 7.0 mph11.3 kmh 30.30 in1026.1 mb 0.00 in0.0 mm 0.00 in0.0 mm 0.00 in0.0 mm
07:15 PM 33.5°F0.8°C 28.9°F-1.7°C 83% 1.0 mph ENE1.6 kmh ENE 4.0 mph6.4 kmh 30.30 in1026.1 mb 0.00 in0.0 mm 0.00 in0.0 mm 0.00 in0.0 mm
07:00 PM 33.4°F0.8°C 28.8°F-1.8°C 83% 1.0 mph E1.6 kmh E 7.0 mph11.3 kmh 30.30 in1026.1 mb 0.00 in0.0 mm 0.00 in0.0 mm 0.00 in0.0 mm
06:45 PM 33.4°F0.8°C 28.8°F-1.8°C 83% 1.0 mph E1.6 kmh E 6.0 mph9.7 kmh 30.30 in1026.1 mb 0.00 in0.0 mm 0.00 in0.0 mm 0.00 in0.0 mm
06:30 PM 33.4°F0.8°C 28.8°F-1.8°C 83% 1.0 mph ENE1.6 kmh ENE 4.0 mph6.4 kmh 30.29 in1025.7 mb 0.00 in0.0 mm 0.00 in0.0 mm 0.00 in0.0 mm
06:15 PM 33.3°F0.7°C 28.7°F-1.8°C 83% 2.0 mph ENE3.2 kmh ENE 7.0 mph11.3 kmh 30.29 in1025.7 mb 0.00 in0.0 mm 0.00 in0.0 mm 0.00 in0.0 mm
06:00 PM 33.4°F0.8°C 28.5°F-1.9°C 82% 2.0 mph ENE3.2 kmh ENE 4.0 mph6.4 kmh 30.28 in1025.4 mb 0.00 in0.0 mm 0.00 in0.0 mm 0.00 in0.0 mm
05:45 PM 33.3°F0.7°C 28.4°F-2.0°C 82% 1.0 mph ENE1.6 kmh ENE 6.0 mph9.7 kmh 30.28 in1025.4 mb 0.00 in0.0 mm 0.00 in0.0 mm 0.00 in0.0 mm
05:30 PM 33.5°F0.8°C 28.6°F-1.9°C 82% 1.0 mph ENE1.6 kmh ENE 6.0 mph9.7 kmh 30.27 in1025.1 mb 0.00 in0.0 mm 0.00 in0.0 mm 0.00 in0.0 mm
05:15 PM 33.8°F1.0°C 28.6°F-1.9°C 81% 2.0 mph E3.2 kmh E 8.0 mph12.9 kmh 30.27 in1025.1 mb 0.00 in0.0 mm 0.00 in0.0 mm 0.00 in0.0 mm
05:00 PM 34.1°F1.2°C 28.9°F-1.7°C 81% 2.0 mph ENE3.2 kmh ENE 8.0 mph12.9 kmh 30.27 in1025.1 mb 0.00 in0.0 mm 0.00 in0.0 mm 0.00 in0.0 mm
04:45 PM 34.3°F1.3°C 29.1°F-1.6°C 81% 1.0 mph ENE1.6 kmh ENE 4.0 mph6.4 kmh 30.28 in1025.4 mb 0.00 in0.0 mm 0.00 in0.0 mm 0.00 in0.0 mm
04:30 PM 34.5°F1.4°C 29.3°F-1.5°C 81% Calm Calm 4.0 mph6.4 kmh 30.28 in1025.4 mb 0.00 in0.0 mm 0.00 in0.0 mm 0.00 in0.0 mm
04:15 PM 34.7°F1.5°C 29.5°F-1.4°C 81% 2.0 mph E3.2 kmh E 8.0 mph12.9 kmh 30.27 in1025.1 mb 0.00 in0.0 mm 0.00 in0.0 mm 0.00 in0.0 mm
04:00 PM 35.2°F1.8°C 29.6°F-1.3°C 80% 2.0 mph E3.2 kmh E 7.0 mph11.3 kmh 30.27 in1025.1 mb 0.00 in0.0 mm 0.00 in0.0 mm 0.00 in0.0 mm
03:45 PM 35.4°F1.9°C 30.1°F-1.1°C 81% 1.0 mph ENE1.6 kmh ENE 6.0 mph9.7 kmh 30.26 in1024.7 mb 0.00 in0.0 mm 0.00 in0.0 mm 0.00 in0.0 mm
03:30 PM 35.4°F1.9°C 30.1°F-1.1°C 81% 2.0 mph ENE3.2 kmh ENE 7.0 mph11.3 kmh 30.26 in1024.7 mb 0.00 in0.0 mm 0.00 in0.0 mm 0.00 in0.0 mm
03:15 PM 35.2°F1.8°C 29.6°F-1.3°C 80% 2.0 mph ENE3.2 kmh ENE 6.0 mph9.7 kmh 30.26 in1024.7 mb 0.00 in0.0 mm 0.00 in0.0 mm 0.00 in0.0 mm
03:00 PM 35.4°F1.9°C 30.1°F-1.1°C 81% Calm Calm 3.0 mph4.8 kmh 30.26 in1024.7 mb 0.00 in0.0 mm 0.00 in0.0 mm 0.00 in0.0 mm
02:45 PM 35.3°F1.8°C 30.1°F-1.1°C 81% 1.0 mph ENE1.6 kmh ENE 5.0 mph8.0 kmh 30.25 in1024.4 mb 0.00 in0.0 mm 0.00 in0.0 mm 0.00 in0.0 mm
02:30 PM 35.5°F1.9°C 30.2°F-1.0°C 81% 1.0 mph NE1.6 kmh NE 6.0 mph9.7 kmh 30.25 in1024.4 mb 0.00 in0.0 mm 0.00 in0.0 mm 0.00 in0.0 mm
02:15 PM 36.0°F2.2°C 30.7°F-0.7°C 81% 1.0 mph NE1.6 kmh NE 4.0 mph6.4 kmh 30.24 in1024.0 mb 0.00 in0.0 mm 0.00 in0.0 mm 0.00 in0.0 mm
02:00 PM 36.1°F2.3°C 30.8°F-0.7°C 81% 3.0 mph ENE4.8 kmh ENE 7.0 mph11.3 kmh 30.23 in1023.7 mb 0.00 in0.0 mm 0.00 in0.0 mm 0.00 in0.0 mm
01:45 PM 36.1°F2.3°C 30.8°F-0.7°C 81% 2.0 mph E3.2 kmh E 8.0 mph12.9 kmh 30.23 in1023.7 mb 0.00 in0.0 mm 0.00 in0.0 mm 0.00 in0.0 mm
01:30 PM 36.3°F2.4°C 31.0°F-0.6°C 81% 1.0 mph ENE1.6 kmh ENE 5.0 mph8.0 kmh 30.23 in1023.7 mb 0.00 in0.0 mm 0.00 in0.0 mm 0.00 in0.0 mm
01:15 PM 36.7°F2.6°C 31.4°F-0.3°C 81% 1.0 mph ENE1.6 kmh ENE 6.0 mph9.7 kmh 30.23 in1023.7 mb 0.00 in0.0 mm 0.00 in0.0 mm 0.00 in0.0 mm
01:00 PM 36.7°F2.6°C 31.4°F-0.3°C 81% 1.0 mph ENE1.6 kmh ENE 4.0 mph6.4 kmh 30.22 in1023.4 mb 0.00 in0.0 mm 0.00 in0.0 mm 0.00 in0.0 mm
12:45 PM 36.2°F2.3°C 30.9°F-0.6°C 81% 1.0 mph NE1.6 kmh NE 5.0 mph8.0 kmh 30.22 in1023.4 mb 0.00 in0.0 mm 0.00 in0.0 mm 0.00 in0.0 mm
12:30 PM 36.5°F2.5°C 31.2°F-0.4°C 81% 1.0 mph ENE1.6 kmh ENE 7.0 mph11.3 kmh 30.21 in1023.0 mb 0.00 in0.0 mm 0.00 in0.0 mm 0.00 in0.0 mm
12:15 PM 36.5°F2.5°C 31.2°F-0.4°C 81% 2.0 mph E3.2 kmh E 6.0 mph9.7 kmh 30.22 in1023.4 mb 0.00 in0.0 mm 0.00 in0.0 mm 0.00 in0.0 mm
12:00 PM 36.6°F2.6°C 31.6°F-0.2°C 82% 1.0 mph E1.6 kmh E 6.0 mph9.7 kmh 30.22 in1023.4 mb 0.00 in0.0 mm 0.00 in0.0 mm 0.00 in0.0 mm
11:45 AM 35.8°F2.1°C 31.1°F-0.5°C 83% 1.0 mph E1.6 kmh E 7.0 mph11.3 kmh 30.22 in1023.4 mb 0.00 in0.0 mm 0.00 in0.0 mm 0.00 in0.0 mm
11:30 AM 35.2°F1.8°C 30.6°F-0.8°C 83% 3.0 mph ENE4.8 kmh ENE 7.0 mph11.3 kmh 30.22 in1023.4 mb 0.00 in0.0 mm 0.00 in0.0 mm 0.00 in0.0 mm
11:15 AM 35.1°F1.7°C 30.8°F-0.7°C 84% 2.0 mph ENE3.2 kmh ENE 6.0 mph9.7 kmh 30.22 in1023.4 mb 0.00 in0.0 mm 0.00 in0.0 mm 0.00 in0.0 mm
11:00 AM 34.3°F1.3°C 30.0°F-1.1°C 84% 2.0 mph E3.2 kmh E 8.0 mph12.9 kmh 30.23 in1023.7 mb 0.00 in0.0 mm 0.00 in0.0 mm 0.00 in0.0 mm
10:45 AM 33.9°F1.1°C 29.9°F-1.2°C 85% 2.0 mph ENE3.2 kmh ENE 11.0 mph17.7 kmh 30.23 in1023.7 mb 0.00 in0.0 mm 0.00 in0.0 mm 0.00 in0.0 mm
10:30 AM 33.0°F0.6°C 29.3°F-1.5°C 86% 2.0 mph ENE3.2 kmh ENE 9.0 mph14.5 kmh 30.23 in1023.7 mb 0.00 in0.0 mm 0.00 in0.0 mm 0.00 in0.0 mm
10:15 AM 32.5°F0.3°C 29.1°F-1.6°C 87% 1.0 mph NNE1.6 kmh NNE 8.0 mph12.9 kmh 30.23 in1023.7 mb 0.00 in0.0 mm 0.00 in0.0 mm 0.00 in0.0 mm
10:00 AM 31.5°F-0.3°C 28.1°F-2.2°C 87% 1.0 mph E1.6 kmh E 7.0 mph11.3 kmh 30.23 in1023.7 mb 0.00 in0.0 mm 0.00 in0.0 mm 0.00 in0.0 mm
09:45 AM 31.1°F-0.5°C 27.7°F-2.4°C 87% 2.0 mph ENE3.2 kmh ENE 12.0 mph19.3 kmh 30.22 in1023.4 mb 0.00 in0.0 mm 0.00 in0.0 mm 0.00 in0.0 mm
09:30 AM 31.0°F-0.6°C 27.9°F-2.3°C 88% Calm Calm 3.0 mph4.8 kmh 30.22 in1023.4 mb 0.00 in0.0 mm 0.00 in0.0 mm 0.00 in0.0 mm
09:15 AM 30.7°F-0.7°C 27.6°F-2.4°C 88% 1.0 mph E1.6 kmh E 6.0 mph9.7 kmh 30.21 in1023.0 mb 0.00 in0.0 mm 0.00 in0.0 mm 0.00 in0.0 mm
09:00 AM 30.2°F-1.0°C 27.1°F-2.7°C 88% 2.0 mph E3.2 kmh E 11.0 mph17.7 kmh 30.20 in1022.7 mb 0.00 in0.0 mm 0.00 in0.0 mm 0.00 in0.0 mm
08:45 AM 29.8°F-1.2°C 26.7°F-2.9°C 88% 2.0 mph ENE3.2 kmh ENE 11.0 mph17.7 kmh 30.20 in1022.7 mb 0.00 in0.0 mm 0.00 in0.0 mm 0.00 in0.0 mm
08:30 AM 29.3°F-1.5°C 26.2°F-3.2°C 88% 2.0 mph ENE3.2 kmh ENE 11.0 mph17.7 kmh 30.19 in1022.4 mb 0.00 in0.0 mm 0.00 in0.0 mm 0.00 in0.0 mm
08:15 AM 28.9°F-1.7°C 25.8°F-3.4°C 88% 2.0 mph ENE3.2 kmh ENE 11.0 mph17.7 kmh 30.18 in1022.0 mb 0.00 in0.0 mm 0.00 in0.0 mm 0.00 in0.0 mm
08:00 AM 28.9°F-1.7°C 25.8°F-3.4°C 88% 4.0 mph ENE6.4 kmh ENE 12.0 mph19.3 kmh 30.18 in1022.0 mb 0.00 in0.0 mm 0.00 in0.0 mm 0.00 in0.0 mm
07:45 AM 29.0°F-1.7°C 25.9°F-3.4°C 88% 3.0 mph ENE4.8 kmh ENE 12.0 mph19.3 kmh 30.17 in1021.7 mb 0.00 in0.0 mm 0.00 in0.0 mm 0.00 in0.0 mm
07:30 AM 28.8°F-1.8°C 25.7°F-3.5°C 88% 2.0 mph ENE3.2 kmh ENE 9.0 mph14.5 kmh 30.17 in1021.7 mb 0.00 in0.0 mm 0.00 in0.0 mm 0.00 in0.0 mm
07:15 AM 28.7°F-1.8°C 25.3°F-3.7°C 87% 2.0 mph E3.2 kmh E 11.0 mph17.7 kmh 30.17 in1021.7 mb 0.00 in0.0 mm 0.00 in0.0 mm 0.00 in0.0 mm
07:00 AM 28.6°F-1.9°C 25.2°F-3.8°C 87% 3.0 mph ENE4.8 kmh ENE 12.0 mph19.3 kmh 30.17 in1021.7 mb 0.00 in0.0 mm 0.00 in0.0 mm 0.00 in0.0 mm
06:45 AM 28.5°F-1.9°C 25.1°F-3.8°C 87% 2.0 mph ENE3.2 kmh ENE 12.0 mph19.3 kmh 30.16 in1021.3 mb 0.00 in0.0 mm 0.00 in0.0 mm 0.00 in0.0 mm
06:30 AM 28.4°F-2.0°C 25.0°F-3.9°C 87% 2.0 mph ENE3.2 kmh ENE 11.0 mph17.7 kmh 30.16 in1021.3 mb 0.00 in0.0 mm 0.00 in0.0 mm 0.00 in0.0 mm
06:15 AM 28.3°F-2.1°C 25.2°F-3.8°C 88% 2.0 mph E3.2 kmh E 14.0 mph22.5 kmh 30.15 in1021.0 mb 0.00 in0.0 mm 0.00 in0.0 mm 0.00 in0.0 mm
06:00 AM 28.2°F-2.1°C 24.8°F-4.0°C 87% 6.0 mph ENE9.7 kmh ENE 13.0 mph20.9 kmh 30.13 in1020.3 mb 0.00 in0.0 mm 0.00 in0.0 mm 0.00 in0.0 mm
05:45 AM 28.1°F-2.2°C 24.7°F-4.1°C 87% 5.0 mph ENE8.0 kmh ENE 12.0 mph19.3 kmh 30.13 in1020.3 mb 0.00 in0.0 mm 0.00 in0.0 mm 0.00 in0.0 mm
05:30 AM 27.9°F-2.3°C 24.8°F-4.0°C 88% 3.0 mph ENE4.8 kmh ENE 12.0 mph19.3 kmh 30.13 in1020.3 mb 0.00 in0.0 mm 0.00 in0.0 mm 0.00 in0.0 mm
05:15 AM 27.8°F-2.3°C 24.7°F-4.1°C 88% 3.0 mph E4.8 kmh E 13.0 mph20.9 kmh 30.13 in1020.3 mb 0.00 in0.0 mm 0.00 in0.0 mm 0.00 in0.0 mm
05:00 AM 27.8°F-2.3°C 24.7°F-4.1°C 88% 1.0 mph E1.6 kmh E 9.0 mph14.5 kmh 30.12 in1020.0 mb 0.00 in0.0 mm 0.00 in0.0 mm 0.00 in0.0 mm
04:45 AM 27.7°F-2.4°C 24.6°F-4.1°C 88% 4.0 mph ENE6.4 kmh ENE 14.0 mph22.5 kmh 30.12 in1020.0 mb 0.00 in0.0 mm 0.00 in0.0 mm 0.00 in0.0 mm
04:30 AM 27.6°F-2.4°C 24.5°F-4.2°C 88% 3.0 mph ENE4.8 kmh ENE 13.0 mph20.9 kmh 30.12 in1020.0 mb 0.00 in0.0 mm 0.00 in0.0 mm 0.00 in0.0 mm
04:15 AM 27.5°F-2.5°C 24.4°F-4.2°C 88% 3.0 mph ENE4.8 kmh ENE 15.0 mph24.1 kmh 30.12 in1020.0 mb 0.00 in0.0 mm 0.00 in0.0 mm 0.00 in0.0 mm
04:00 AM 27.5°F-2.5°C 24.4°F-4.2°C 88% 3.0 mph E4.8 kmh E 12.0 mph19.3 kmh 30.12 in1020.0 mb 0.00 in0.0 mm 0.00 in0.0 mm 0.00 in0.0 mm
03:45 AM 27.5°F-2.5°C 24.4°F-4.2°C 88% 3.0 mph ENE4.8 kmh ENE 14.0 mph22.5 kmh 30.12 in1020.0 mb 0.00 in0.0 mm 0.00 in0.0 mm 0.00 in0.0 mm
03:30 AM 27.9°F-2.3°C 24.8°F-4.0°C 88% 1.0 mph E1.6 kmh E 9.0 mph14.5 kmh 30.12 in1020.0 mb 0.00 in0.0 mm 0.00 in0.0 mm 0.00 in0.0 mm
03:15 AM 28.0°F-2.2°C 24.6°F-4.1°C 87% 2.0 mph E3.2 kmh E 12.0 mph19.3 kmh 30.12 in1020.0 mb 0.00 in0.0 mm 0.00 in0.0 mm 0.00 in0.0 mm
03:00 AM 28.1°F-2.2°C 24.5°F-4.2°C 86% 3.0 mph ENE4.8 kmh ENE 15.0 mph24.1 kmh 30.12 in1020.0 mb 0.00 in0.0 mm 0.00 in0.0 mm 0.00 in0.0 mm
02:45 AM 28.3°F-2.1°C 24.6°F-4.1°C 86% 2.0 mph ENE3.2 kmh ENE 12.0 mph19.3 kmh 30.12 in1020.0 mb 0.00 in0.0 mm 0.00 in0.0 mm 0.00 in0.0 mm
02:30 AM 28.6°F-1.9°C 24.7°F-4.1°C 85% 4.0 mph E6.4 kmh E 12.0 mph19.3 kmh 30.12 in1020.0 mb 0.00 in0.0 mm 0.00 in0.0 mm 0.00 in0.0 mm
02:15 AM 28.8°F-1.8°C 24.9°F-3.9°C 85% 3.0 mph ENE4.8 kmh ENE 11.0 mph17.7 kmh 30.12 in1020.0 mb 0.00 in0.0 mm 0.00 in0.0 mm 0.00 in0.0 mm
02:00 AM 28.9°F-1.7°C 25.0°F-3.9°C 85% 2.0 mph ENE3.2 kmh ENE 11.0 mph17.7 kmh 30.11 in1019.6 mb 0.00 in0.0 mm 0.00 in0.0 mm 0.00 in0.0 mm
01:45 AM 28.9°F-1.7°C 25.0°F-3.9°C 85% 3.0 mph E4.8 kmh E 11.0 mph17.7 kmh 30.11 in1019.6 mb 0.00 in0.0 mm 0.00 in0.0 mm 0.00 in0.0 mm
01:30 AM 28.6°F-1.9°C 24.7°F-4.1°C 85% 6.0 mph E9.7 kmh E 13.0 mph20.9 kmh 30.10 in1019.3 mb 0.00 in0.0 mm 0.00 in0.0 mm 0.00 in0.0 mm
01:15 AM 28.8°F-1.8°C 24.9°F-3.9°C 85% 5.0 mph E8.0 kmh E 13.0 mph20.9 kmh 30.09 in1019.0 mb 0.00 in0.0 mm 0.00 in0.0 mm 0.00 in0.0 mm
01:00 AM 28.8°F-1.8°C 24.6°F-4.1°C 84% 4.0 mph E6.4 kmh E 13.0 mph20.9 kmh 30.10 in1019.3 mb 0.00 in0.0 mm 0.00 in0.0 mm 0.00 in0.0 mm
12:45 AM 28.6°F-1.9°C 24.4°F-4.2°C 84% 6.0 mph E9.7 kmh E 14.0 mph22.5 kmh 30.09 in1019.0 mb 0.00 in0.0 mm 0.00 in0.0 mm 0.00 in0.0 mm
12:30 AM 28.3°F-2.1°C 24.1°F-4.4°C 84% 4.0 mph E6.4 kmh E 16.0 mph25.7 kmh 30.09 in1019.0 mb 0.00 in0.0 mm 0.00 in0.0 mm 0.00 in0.0 mm
12:15 AM 28.2°F-2.1°C 23.7°F-4.6°C 83% 5.0 mph E8.0 kmh E 16.0 mph25.7 kmh 30.10 in1019.3 mb 0.00 in0.0 mm 0.00 in0.0 mm 0.00 in0.0 mm
12:00 AM 28.1°F-2.2°C 23.6°F-4.7°C 83% 8.0 mph E12.9 kmh E 16.0 mph25.7 kmh 30.10 in1019.3 mb 0.00 in0.0 mm 0.00 in0.0 mm 0.00 in0.0 mm